createdAt,value
2018-03-11T00:01:58.982Z,99730.31
2018-03-11T00:04:26.594Z,99728.97
2018-03-11T00:06:54.158Z,99729.39
2018-03-11T00:09:21.722Z,99729.81
2018-03-11T00:11:49.290Z,99736.52
2018-03-11T00:14:16.846Z,99737.32
2018-03-11T00:16:44.879Z,99737.66
2018-03-11T00:19:12.502Z,99731.81
2018-03-11T00:21:40.062Z,99731.45
2018-03-11T00:24:07.649Z,99723.65
2018-03-11T00:26:35.282Z,99726.92
2018-03-11T00:29:02.890Z,99725.61
2018-03-11T00:31:30.510Z,99726.29
2018-03-11T00:33:58.074Z,99739.06
2018-03-11T00:36:25.698Z,99735.55
2018-03-11T00:38:53.315Z,99736.55
2018-03-11T00:41:20.926Z,99738.06
2018-03-11T00:43:48.481Z,99730.97
2018-03-11T00:46:16.037Z,99728.28
2018-03-11T00:48:43.671Z,99715.94
2018-03-11T00:51:11.295Z,99717.50
2018-03-11T00:53:38.974Z,99717.84
2018-03-11T00:56:06.583Z,99712.13
2018-03-11T00:58:34.118Z,99716.75
2018-03-11T01:01:01.743Z,99720.27
2018-03-11T01:03:29.303Z,99718.42
2018-03-11T01:05:56.918Z,99722.36
2018-03-11T01:08:24.539Z,99725.83
2018-03-11T01:10:52.094Z,99726.24
2018-03-11T01:13:19.666Z,99725.17
2018-03-11T01:15:47.227Z,99722.16
2018-03-11T01:18:14.842Z,99723.91
2018-03-11T01:20:42.406Z,99730.45
2018-03-11T01:23:09.967Z,99728.36
2018-03-11T01:25:37.538Z,99732.27
2018-03-11T01:28:05.100Z,99732.11
2018-03-11T01:30:32.770Z,99731.02
2018-03-11T01:33:00.331Z,99728.61
2018-03-11T01:35:27.898Z,99733.39
2018-03-11T01:37:55.534Z,99734.31
2018-03-11T01:40:23.094Z,99744.20
2018-03-11T01:42:50.710Z,99743.21
2018-03-11T01:45:18.270Z,99742.03
2018-03-11T01:47:45.835Z,99741.37
2018-03-11T01:50:13.406Z,99737.69
2018-03-11T01:52:52.646Z,99736.11
2018-03-11T01:55:20.284Z,99732.06
2018-03-11T01:57:47.907Z,99722.94
2018-03-11T02:00:15.587Z,99729.80
2018-03-11T02:02:43.146Z,99736.77
2018-03-11T02:05:10.715Z,99735.14
2018-03-11T02:07:38.286Z,99730.94
2018-03-11T02:10:05.842Z,99720.15
2018-03-11T02:12:33.510Z,99712.86
2018-03-11T02:15:01.164Z,99712.66
2018-03-11T02:17:28.788Z,99712.13
2018-03-11T02:19:56.419Z,99721.36
2018-03-11T02:22:23.986Z,99726.22
2018-03-11T02:24:51.605Z,99715.73
2018-03-11T02:27:19.166Z,99719.42
2018-03-11T02:29:46.796Z,99723.05
2018-03-11T02:32:14.382Z,99725.24
2018-03-11T02:34:41.951Z,99725.63
2018-03-11T02:37:09.558Z,99724.63
2018-03-11T02:39:37.122Z,99730.71
2018-03-11T02:42:04.743Z,99735.52
2018-03-11T02:44:32.318Z,99734.02
2018-03-11T02:46:59.878Z,99742.62
2018-03-11T02:49:27.490Z,99745.80
2018-03-11T02:51:55.110Z,99734.94
2018-03-11T02:54:22.680Z,99735.52
2018-03-11T02:56:50.245Z,99736.70
2018-03-11T02:59:17.809Z,99736.78
2018-03-11T03:01:45.481Z,99734.59
2018-03-11T03:04:13.099Z,99736.70
2018-03-11T03:06:40.723Z,99733.81
2018-03-11T03:09:08.304Z,99732.31
2018-03-11T03:11:35.862Z,99733.11
2018-03-11T03:14:03.476Z,99731.77
2018-03-11T03:16:31.042Z,99733.31
2018-03-11T03:18:58.671Z,99728.75
2018-03-11T03:21:26.239Z,99721.75
2018-03-11T03:23:53.798Z,99720.73
2018-03-11T03:26:21.411Z,99718.89
2018-03-11T03:28:48.973Z,99719.81
2018-03-11T03:31:16.587Z,99721.24
2018-03-11T03:33:44.158Z,99726.61
2018-03-11T03:36:11.774Z,99727.53
2018-03-11T03:38:39.382Z,99722.41
2018-03-11T03:41:06.945Z,99721.69
2018-03-11T03:43:34.524Z,99717.53
2018-03-11T03:46:02.155Z,99721.49
2018-03-11T03:48:29.718Z,99723.66
2018-03-11T03:50:57.329Z,99715.34
2018-03-11T03:53:24.890Z,99717.21
2018-03-11T03:55:52.461Z,99720.63
2018-03-11T03:58:20.031Z,99714.78
2018-03-11T04:00:47.590Z,99721.11
2018-03-11T04:03:15.205Z,99716.34
2018-03-11T04:05:42.772Z,99719.92
2018-03-11T04:08:10.337Z,99718.00
2018-03-11T04:10:37.962Z,99717.73
2018-03-11T04:13:05.583Z,99711.45
2018-03-11T04:15:33.237Z,99703.90
2018-03-11T04:18:00.859Z,99707.08
2018-03-11T04:20:28.458Z,99708.92
2018-03-11T04:22:56.083Z,99706.80
2018-03-11T04:25:23.642Z,99710.75
2018-03-11T04:27:51.334Z,99710.39
2018-03-11T04:30:18.895Z,99718.63
2018-03-11T04:32:46.467Z,99711.19
2018-03-11T04:35:14.034Z,99710.48
2018-03-11T04:37:41.664Z,99718.89
2018-03-11T04:40:09.295Z,99718.63
2018-03-11T04:42:36.866Z,99723.53
2018-03-11T04:45:04.491Z,99717.42
2018-03-11T04:47:32.123Z,99723.03
2018-03-11T04:49:59.739Z,99724.27
2018-03-11T04:52:27.360Z,99726.86
2018-03-11T04:54:54.982Z,99725.67
2018-03-11T04:57:22.547Z,99732.94
2018-03-11T04:59:50.127Z,99722.89
2018-03-11T05:02:17.689Z,99725.95
2018-03-11T05:04:45.312Z,99721.09
2018-03-11T05:07:12.879Z,99728.62
2018-03-11T05:09:40.502Z,99728.55
2018-03-11T05:12:08.127Z,99728.55
2018-03-11T05:14:35.760Z,99726.91
2018-03-11T05:17:03.386Z,99731.14
2018-03-11T05:19:30.941Z,99735.91
2018-03-11T05:21:58.558Z,99734.01
2018-03-11T05:24:26.126Z,99742.75
2018-03-11T05:26:53.691Z,99748.30
2018-03-11T05:29:21.365Z,99742.27
2018-03-11T05:31:48.926Z,99751.43
2018-03-11T05:34:16.490Z,99752.06
2018-03-11T05:36:44.068Z,99753.63
2018-03-11T05:39:11.638Z,99756.51
2018-03-11T05:41:40.029Z,99754.78
2018-03-11T05:44:07.594Z,99756.55
2018-03-11T05:46:35.161Z,99753.05
2018-03-11T05:49:02.799Z,99753.75
2018-03-11T05:51:30.424Z,99754.81
2018-03-11T05:53:58.105Z,99754.84
2018-03-11T05:56:25.679Z,99762.95
2018-03-11T05:58:53.264Z,99753.92
2018-03-11T06:01:20.839Z,99747.30
2018-03-11T06:03:48.475Z,99749.87
2018-03-11T06:06:16.159Z,99749.16
2018-03-11T06:08:43.786Z,99753.22
2018-03-11T06:11:11.354Z,99760.23
2018-03-11T06:13:38.982Z,99758.97
2018-03-11T06:16:06.603Z,99763.37
2018-03-11T06:18:34.237Z,99758.58
2018-03-11T06:21:01.872Z,99758.50
2018-03-11T06:23:29.446Z,99761.69
2018-03-11T06:25:57.054Z,99767.39
2018-03-11T06:28:24.618Z,99763.30
2018-03-11T06:30:52.233Z,99769.92
2018-03-11T06:33:19.854Z,99768.62
2018-03-11T06:35:47.475Z,99762.54
2018-03-11T06:38:17.023Z,99765.08
2018-03-11T06:40:44.582Z,99769.11
2018-03-11T06:43:12.198Z,99769.16
2018-03-11T06:45:39.783Z,99768.95
2018-03-11T06:48:07.342Z,99771.86
2018-03-11T06:50:34.913Z,99779.59
2018-03-11T06:53:02.539Z,99775.43
2018-03-11T06:55:30.166Z,99778.02
2018-03-11T06:57:57.742Z,99786.69
2018-03-11T07:00:25.362Z,99786.56
2018-03-11T07:02:52.991Z,99773.37
2018-03-11T07:05:20.557Z,99772.67
2018-03-11T07:07:48.223Z,99770.14
2018-03-11T07:10:15.783Z,99773.52
2018-03-11T07:12:43.414Z,99774.90
2018-03-11T07:15:11.048Z,99775.47
